sensor_id;sensor_type;location;lat;lon;timestamp;pressure;altitude;pressure_sealevel;temperature;humidity
12666;BME280;58531;59.050;17.416;2023-04-04T00:00:38;102347.91;;;-6.26;100.00
12666;BME280;58531;59.050;17.416;2023-04-04T00:03:05;102348.13;;;-6.23;100.00
12666;BME280;58531;59.050;17.416;2023-04-04T00:05:32;102348.03;;;-6.18;100.00
12666;BME280;58531;59.050;17.416;2023-04-04T00:07:59;102340.75;;;-6.16;100.00
12666;BME280;58531;59.050;17.416;2023-04-04T00:10:28;102337.72;;;-6.23;100.00
12666;BME280;58531;59.050;17.416;2023-04-04T00:12:54;102337.22;;;-6.25;100.00
12666;BME280;58531;59.050;17.416;2023-04-04T00:15:21;102342.41;;;-6.25;100.00
12666;BME280;58531;59.050;17.416;2023-04-04T00:17:48;102335.69;;;-6.26;100.00
12666;BME280;58531;59.050;17.416;2023-04-04T00:20:15;102334.69;;;-6.30;100.00
12666;BME280;58531;59.050;17.416;2023-04-04T00:22:42;102341.00;;;-6.36;100.00
12666;BME280;58531;59.050;17.416;2023-04-04T00:25:08;102325.22;;;-6.39;100.00
12666;BME280;58531;59.050;17.416;2023-04-04T00:27:37;102328.38;;;-6.42;100.00
12666;BME280;58531;59.050;17.416;2023-04-04T00:30:05;102326.13;;;-6.49;100.00
12666;BME280;58531;59.050;17.416;2023-04-04T00:32:32;102339.16;;;-6.54;100.00
12666;BME280;58531;59.050;17.416;2023-04-04T00:34:58;102332.00;;;-6.62;100.00
12666;BME280;58531;59.050;17.416;2023-04-04T00:37:25;102332.56;;;-6.65;100.00
12666;BME280;58531;59.050;17.416;2023-04-04T00:39:52;102323.81;;;-6.74;100.00
12666;BME280;58531;59.050;17.416;2023-04-04T00:42:19;102321.78;;;-6.77;100.00
12666;BME280;58531;59.050;17.416;2023-04-04T00:44:48;102316.63;;;-6.82;100.00
12666;BME280;58531;59.050;17.416;2023-04-04T00:47:16;102314.34;;;-6.83;100.00
12666;BME280;58531;59.050;17.416;2023-04-04T00:49:44;102313.34;;;-6.87;100.00
12666;BME280;58531;59.050;17.416;2023-04-04T00:52:11;102312.34;;;-6.91;100.00
12666;BME280;58531;59.050;17.416;2023-04-04T00:54:39;102308.50;;;-6.93;100.00
12666;BME280;58531;59.050;17.416;2023-04-04T00:57:07;102305.94;;;-6.98;100.00
12666;BME280;58531;59.050;17.416;2023-04-04T00:59:35;102305.50;;;-7.05;100.00
12666;BME280;58531;59.050;17.416;2023-04-04T01:02:03;102308.09;;;-7.05;100.00
12666;BME280;58531;59.050;17.416;2023-04-04T01:04:30;102305.94;;;-6.98;100.00
12666;BME280;58531;59.050;17.416;2023-04-04T01:06:57;102308.59;;;-7.03;100.00
12666;BME280;58531;59.050;17.416;2023-04-04T01:09:24;102313.69;;;-6.93;100.00
12666;BME280;58531;59.050;17.416;2023-04-04T01:11:51;102312.19;;;-6.99;100.00
12666;BME280;58531;59.050;17.416;2023-04-04T01:14:19;102313.78;;;-7.03;100.00
12666;BME280;58531;59.050;17.416;2023-04-04T01:16:46;102313.28;;;-7.05;100.00
12666;BME280;58531;59.050;17.416;2023-04-04T01:19:19;102311.75;;;-7.06;100.00
12666;BME280;58531;59.050;17.416;2023-04-04T01:21:48;102307.59;;;-7.07;100.00
12666;BME280;58531;59.050;17.416;2023-04-04T01:24:17;102311.34;;;-7.18;100.00
12666;BME280;58531;59.050;17.416;2023-04-04T01:26:46;102309.31;;;-7.21;100.00
12666;BME280;58531;59.050;17.416;2023-04-04T01:29:13;102306.69;;;-7.21;100.00
12666;BME280;58531;59.050;17.416;2023-04-04T01:31:42;102310.34;;;-7.22;100.00
12666;BME280;58531;59.050;17.416;2023-04-04T01:34:15;102308.25;;;-7.20;100.00
12666;BME280;58531;59.050;17.416;2023-04-04T01:36:48;102304.66;;;-7.24;100.00
12666;BME280;58531;59.050;17.416;2023-04-04T01:39:24;102297.72;;;-7.29;100.00
12666;BME280;58531;59.050;17.416;2023-04-04T01:41:55;102301.56;;;-7.26;100.00
12666;BME280;58531;59.050;17.416;2023-04-04T01:44:22;102298.97;;;-7.26;100.00
12666;BME280;58531;59.050;17.416;2023-04-04T01:46:52;102289.88;;;-7.24;100.00
12666;BME280;58531;59.050;17.416;2023-04-04T01:49:19;102291.13;;;-7.21;100.00
12666;BME280;58531;59.050;17.416;2023-04-04T01:51:46;102289.81;;;-7.19;100.00
12666;BME280;58531;59.050;17.416;2023-04-04T01:54:14;102288.28;;;-7.20;100.00
12666;BME280;58531;59.050;17.416;2023-04-04T01:56:41;102282.31;;;-7.20;100.00
12666;BME280;58531;59.050;17.416;2023-04-04T01:59:09;102280.00;;;-7.22;100.00
12666;BME280;58531;59.050;17.416;2023-04-04T02:01:36;102280.81;;;-7.26;100.00
12666;BME280;58531;59.050;17.416;2023-04-04T02:04:03;102271.81;;;-7.34;100.00
12666;BME280;58531;59.050;17.416;2023-04-04T02:06:30;102273.19;;;-7.41;100.00
12666;BME280;58531;59.050;17.416;2023-04-04T02:08:57;102275.06;;;-7.47;100.00
12666;BME280;58531;59.050;17.416;2023-04-04T02:11:24;102272.78;;;-7.53;100.00
12666;BME280;58531;59.050;17.416;2023-04-04T02:13:51;102274.38;;;-7.57;100.00
12666;BME280;58531;59.050;17.416;2023-04-04T02:16:19;102273.88;;;-7.59;100.00
12666;BME280;58531;59.050;17.416;2023-04-04T02:18:46;102269.16;;;-7.52;100.00
12666;BME280;58531;59.050;17.416;2023-04-04T02:21:13;102273.78;;;-7.49;100.00
12666;BME280;58531;59.050;17.416;2023-04-04T02:23:40;102274.88;;;-7.55;100.00
12666;BME280;58531;59.050;17.416;2023-04-04T02:26:07;102273.88;;;-7.59;100.00
12666;BME280;58531;59.050;17.416;2023-04-04T02:28:33;102265.59;;;-7.61;100.00
12666;BME280;58531;59.050;17.416;2023-04-04T02:31:00;102264.00;;;-7.57;100.00
12666;BME280;58531;59.050;17.416;2023-04-04T02:33:29;102261.66;;;-7.59;100.00
12666;BME280;58531;59.050;17.416;2023-04-04T02:35:57;102260.94;;;-7.64;100.00
12666;BME280;58531;59.050;17.416;2023-04-04T02:38:23;102260.66;;;-7.63;100.00
12666;BME280;58531;59.050;17.416;2023-04-04T02:40:50;102259.94;;;-7.68;100.00
12666;BME280;58531;59.050;17.416;2023-04-04T02:43:17;102258.94;;;-7.72;100.00
12666;BME280;58531;59.050;17.416;2023-04-04T02:45:46;102255.63;;;-7.78;100.00
12666;BME280;58531;59.050;17.416;2023-04-04T02:48:13;102249.66;;;-7.78;100.00
12666;BME280;58531;59.050;17.416;2023-04-04T02:50:42;102248.66;;;-7.82;100.00
12666;BME280;58531;59.050;17.416;2023-04-04T02:53:08;102250.00;;;-7.85;100.00
12666;BME280;58531;59.050;17.416;2023-04-04T02:55:35;102255.41;;;-7.81;100.00
12666;BME280;58531;59.050;17.416;2023-04-04T02:58:02;102250.72;;;-7.79;100.00
12666;BME280;58531;59.050;17.416;2023-04-04T03:00:29;102248.66;;;-7.82;100.00
12666;BME280;58531;59.050;17.416;2023-04-04T03:02:56;102259.03;;;-7.82;100.00
12666;BME280;58531;59.050;17.416;2023-04-04T03:05:23;102253.63;;;-7.86;100.00
12666;BME280;58531;59.050;17.416;2023-04-04T03:07:53;102256.25;;;-7.91;100.00
12666;BME280;58531;59.050;17.416;2023-04-04T03:10:21;102255.94;;;-7.84;100.00
12666;BME280;58531;59.050;17.416;2023-04-04T03:12:48;102257.91;;;-7.71;100.00
12666;BME280;58531;59.050;17.416;2023-04-04T03:15:15;102255.34;;;-7.76;100.00
12666;BME280;58531;59.050;17.416;2023-04-04T03:17:42;102249.94;;;-7.80;100.00
12666;BME280;58531;59.050;17.416;2023-04-04T03:20:11;102252.31;;;-7.83;100.00
12666;BME280;58531;59.050;17.416;2023-04-04T03:22:38;102254.94;;;-7.88;100.00
12666;BME280;58531;59.050;17.416;2023-04-04T03:25:07;102249.25;;;-7.90;100.00
12666;BME280;58531;59.050;17.416;2023-04-04T03:27:34;102248.78;;;-7.92;100.00
12666;BME280;58531;59.050;17.416;2023-04-04T03:30:01;102243.59;;;-7.92;100.00
12666;BME280;58531;59.050;17.416;2023-04-04T03:32:28;102240.50;;;-7.94;100.00
12666;BME280;58531;59.050;17.416;2023-04-04T03:34:55;102245.13;;;-7.91;100.00
12666;BME280;58531;59.050;17.416;2023-04-04T03:37:21;102242.81;;;-7.93;100.00
12666;BME280;58531;59.050;17.416;2023-04-04T03:39:48;102241.25;;;-7.94;100.00
12666;BME280;58531;59.050;17.416;2023-04-04T03:42:16;102243.88;;;-7.99;100.00
12666;BME280;58531;59.050;17.416;2023-04-04T03:44:43;102241.03;;;-7.97;100.00
12666;BME280;58531;59.050;17.416;2023-04-04T03:47:10;102236.91;;;-7.98;100.00
12666;BME280;58531;59.050;17.416;2023-04-04T03:49:37;102236.41;;;-8.00;100.00
12666;BME280;58531;59.050;17.416;2023-04-04T03:52:04;102232.75;;;-7.99;100.00
12666;BME280;58531;59.050;17.416;2023-04-04T03:54:31;102238.16;;;-7.96;100.00
12666;BME280;58531;59.050;17.416;2023-04-04T03:56:58;102234.84;;;-8.01;100.00
12666;BME280;58531;59.050;17.416;2023-04-04T03:59:28;102230.75;;;-8.07;100.00
12666;BME280;58531;59.050;17.416;2023-04-04T04:01:54;102235.94;;;-8.07;100.00
12666;BME280;58531;59.050;17.416;2023-04-04T04:04:21;102226.66;;;-8.13;100.00
12666;BME280;58531;59.050;17.416;2023-04-04T04:06:48;102227.19;;;-8.16;100.00
12666;BME280;58531;59.050;17.416;2023-04-04T04:09:15;102222.00;;;-8.16;100.00
12666;BME280;58531;59.050;17.416;2023-04-04T04:11:43;102212.88;;;-8.09;100.00
12666;BME280;58531;59.050;17.416;2023-04-04T04:14:10;102218.75;;;-7.98;100.00
12666;BME280;58531;59.050;17.416;2023-04-04T04:16:39;102212.97;;;-7.90;100.00
12666;BME280;58531;59.050;17.416;2023-04-04T04:19:06;102228.47;;;-7.85;100.00
12666;BME280;58531;59.050;17.416;2023-04-04T04:21:33;102218.59;;;-7.83;100.00
12666;BME280;58531;59.050;17.416;2023-04-04T04:24:00;102202.00;;;-7.82;100.00
12666;BME280;58531;59.050;17.416;2023-04-04T04:26:27;102203.00;;;-7.78;100.00
12666;BME280;58531;59.050;17.416;2023-04-04T04:28:54;102207.88;;;-7.72;100.00
12666;BME280;58531;59.050;17.416;2023-04-04T04:31:20;102204.44;;;-7.67;100.00
12666;BME280;58531;59.050;17.416;2023-04-04T04:33:49;102197.66;;;-7.63;100.00
12666;BME280;58531;59.050;17.416;2023-04-04T04:36:15;102201.75;;;-7.57;100.00
12666;BME280;58531;59.050;17.416;2023-04-04T04:38:42;102201.16;;;-7.49;100.00
12666;BME280;58531;59.050;17.416;2023-04-04T04:41:09;102202.88;;;-7.40;100.00
12666;BME280;58531;59.050;17.416;2023-04-04T04:43:36;102206.44;;;-7.36;100.00
12666;BME280;58531;59.050;17.416;2023-04-04T04:46:03;102202.53;;;-7.33;100.00
12666;BME280;58531;59.050;17.416;2023-04-04T04:48:30;102200.22;;;-7.35;100.00
12666;BME280;58531;59.050;17.416;2023-04-04T04:50:58;102204.56;;;-7.30;100.00
12666;BME280;58531;59.050;17.416;2023-04-04T04:53:25;102204.25;;;-7.24;100.00
12666;BME280;58531;59.050;17.416;2023-04-04T04:55:52;102207.97;;;-7.11;100.00
12666;BME280;58531;59.050;17.416;2023-04-04T04:58:19;102202.13;;;-6.98;100.00
12666;BME280;58531;59.050;17.416;2023-04-04T05:00:48;102206.81;;;-6.82;100.00
12666;BME280;58531;59.050;17.416;2023-04-04T05:03:15;102213.00;;;-6.60;100.00
12666;BME280;58531;59.050;17.416;2023-04-04T05:05:42;102209.66;;;-6.28;100.00
12666;BME280;58531;59.050;17.416;2023-04-04T05:08:10;102212.56;;;-5.98;100.00
12666;BME280;58531;59.050;17.416;2023-04-04T05:10:37;102201.81;;;-5.65;100.00
12666;BME280;58531;59.050;17.416;2023-04-04T05:13:03;102212.03;;;-5.28;100.00
12666;BME280;58531;59.050;17.416;2023-04-04T05:15:30;102209.84;;;-4.85;100.00
12666;BME280;58531;59.050;17.416;2023-04-04T05:17:57;102209.41;;;-4.66;100.00
12666;BME280;58531;59.050;17.416;2023-04-04T05:20:24;102208.91;;;-4.32;100.00
12666;BME280;58531;59.050;17.416;2023-04-04T05:22:51;102204.31;;;-4.05;100.00
12666;BME280;58531;59.050;17.416;2023-04-04T05:25:19;102213.19;;;-3.84;100.00
12666;BME280;58531;59.050;17.416;2023-04-04T05:27:46;102212.19;;;-3.66;100.00
12666;BME280;58531;59.050;17.416;2023-04-04T05:30:14;102205.91;;;-3.65;100.00
12666;BME280;58531;59.050;17.416;2023-04-04T05:32:43;102204.63;;;-3.37;100.00
12666;BME280;58531;59.050;17.416;2023-04-04T05:35:11;102210.94;;;-3.30;100.00
12666;BME280;58531;59.050;17.416;2023-04-04T05:37:38;102209.63;;;-3.10;100.00
12666;BME280;58531;59.050;17.416;2023-04-04T05:40:06;102213.16;;;-2.98;100.00
12666;BME280;58531;59.050;17.416;2023-04-04T05:42:35;102203.34;;;-2.84;100.00
12666;BME280;58531;59.050;17.416;2023-04-04T05:45:02;102210.91;;;-2.65;100.00
12666;BME280;58531;59.050;17.416;2023-04-04T05:47:29;102211.97;;;-2.41;100.00
12666;BME280;58531;59.050;17.416;2023-04-04T05:49:55;102215.78;;;-2.22;100.00
12666;BME280;58531;59.050;17.416;2023-04-04T05:52:22;102208.25;;;-2.06;100.00
12666;BME280;58531;59.050;17.416;2023-04-04T05:54:49;102209.13;;;-2.02;100.00
12666;BME280;58531;59.050;17.416;2023-04-04T05:57:16;102212.22;;;-1.92;100.00
12666;BME280;58531;59.050;17.416;2023-04-04T05:59:44;102216.50;;;-1.87;100.00
12666;BME280;58531;59.050;17.416;2023-04-04T06:02:11;102201.13;;;-1.89;100.00
12666;BME280;58531;59.050;17.416;2023-04-04T06:04:38;102204.03;;;-1.82;100.00
12666;BME280;58531;59.050;17.416;2023-04-04T06:07:05;102206.81;;;-1.87;99.39
12666;BME280;58531;59.050;17.416;2023-04-04T06:09:32;102212.91;;;-1.66;100.00
12666;BME280;58531;59.050;17.416;2023-04-04T06:12:00;102213.53;;;-1.69;95.55
12666;BME280;58531;59.050;17.416;2023-04-04T06:14:28;102219.78;;;-1.53;99.25
12666;BME280;58531;59.050;17.416;2023-04-04T06:16:57;102217.41;;;-1.37;96.56
12666;BME280;58531;59.050;17.416;2023-04-04T06:19:24;102218.91;;;-1.28;94.07
12666;BME280;58531;59.050;17.416;2023-04-04T06:21:51;102212.56;;;-1.27;90.92
12666;BME280;58531;59.050;17.416;2023-04-04T06:24:18;102214.00;;;-1.09;93.37
12666;BME280;58531;59.050;17.416;2023-04-04T06:26:45;102218.63;;;-1.06;91.84
12666;BME280;58531;59.050;17.416;2023-04-04T06:29:15;102219.53;;;-1.02;92.26
12666;BME280;58531;59.050;17.416;2023-04-04T06:31:42;102211.94;;;-1.24;88.41
12666;BME280;58531;59.050;17.416;2023-04-04T06:34:11;102218.63;;;-1.35;90.38
12666;BME280;58531;59.050;17.416;2023-04-04T06:36:37;102210.22;;;-1.20;89.79
12666;BME280;58531;59.050;17.416;2023-04-04T06:39:04;102211.75;;;-1.19;88.49
12666;BME280;58531;59.050;17.416;2023-04-04T06:41:31;102214.16;;;-1.06;88.96
12666;BME280;58531;59.050;17.416;2023-04-04T06:43:58;102210.47;;;-1.05;88.00
12666;BME280;58531;59.050;17.416;2023-04-04T06:46:25;102210.13;;;-1.03;87.10
12666;BME280;58531;59.050;17.416;2023-04-04T06:48:54;102210.47;;;-0.84;87.26
12666;BME280;58531;59.050;17.416;2023-04-04T06:51:22;102204.25;;;-0.59;86.76
12666;BME280;58531;59.050;17.416;2023-04-04T06:53:49;102208.41;;;-0.58;85.70
12666;BME280;58531;59.050;17.416;2023-04-04T06:56:16;102204.38;;;-0.35;86.12
12666;BME280;58531;59.050;17.416;2023-04-04T06:58:43;102202.03;;;-0.16;85.81
12666;BME280;58531;59.050;17.416;2023-04-04T07:01:10;102201.03;;;0.44;83.83
12666;BME280;58531;59.050;17.416;2023-04-04T07:03:36;102203.03;;;0.59;81.14
12666;BME280;58531;59.050;17.416;2023-04-04T07:06:03;102193.69;;;0.74;80.91
12666;BME280;58531;59.050;17.416;2023-04-04T07:08:32;102197.56;;;0.76;81.69
12666;BME280;58531;59.050;17.416;2023-04-04T07:10:58;102203.22;;;0.78;81.31
12666;BME280;58531;59.050;17.416;2023-04-04T07:13:25;102198.38;;;1.04;80.04
12666;BME280;58531;59.050;17.416;2023-04-04T07:15:52;102203.84;;;1.11;79.72
12666;BME280;58531;59.050;17.416;2023-04-04T07:18:19;102204.19;;;1.37;78.76
12666;BME280;58531;59.050;17.416;2023-04-04T07:20:46;102204.84;;;1.46;77.83
12666;BME280;58531;59.050;17.416;2023-04-04T07:23:13;102211.06;;;1.26;78.04
12666;BME280;58531;59.050;17.416;2023-04-04T07:25:42;102200.25;;;0.92;78.22
12666;BME280;58531;59.050;17.416;2023-04-04T07:28:09;102208.66;;;1.09;74.32
12666;BME280;58531;59.050;17.416;2023-04-04T07:30:36;102218.41;;;1.20;74.78
12666;BME280;58531;59.050;17.416;2023-04-04T07:33:03;102227.25;;;1.28;74.41
12666;BME280;58531;59.050;17.416;2023-04-04T07:35:30;102220.22;;;1.32;74.55
12666;BME280;58531;59.050;17.416;2023-04-04T07:37:57;102223.59;;;1.44;74.03
12666;BME280;58531;59.050;17.416;2023-04-04T07:40:23;102213.38;;;1.55;72.64
12666;BME280;58531;59.050;17.416;2023-04-04T07:42:52;102206.59;;;1.42;72.59
12666;BME280;58531;59.050;17.416;2023-04-04T07:45:19;102210.28;;;1.25;72.44
12666;BME280;58531;59.050;17.416;2023-04-04T07:47:46;102212.19;;;1.52;72.16
12666;BME280;58531;59.050;17.416;2023-04-04T07:50:13;102205.44;;;1.67;70.70
12666;BME280;58531;59.050;17.416;2023-04-04T07:52:41;102213.75;;;1.69;69.85
12666;BME280;58531;59.050;17.416;2023-04-04T07:55:08;102206.72;;;1.45;68.64
12666;BME280;58531;59.050;17.416;2023-04-04T07:57:36;102203.50;;;1.52;70.99
12666;BME280;58531;59.050;17.416;2023-04-04T08:00:06;102210.97;;;1.50;67.90
12666;BME280;58531;59.050;17.416;2023-04-04T08:02:34;102214.81;;;1.52;66.42
12666;BME280;58531;59.050;17.416;2023-04-04T08:05:01;102214.38;;;1.78;65.85
12666;BME280;58531;59.050;17.416;2023-04-04T08:07:28;102205.19;;;1.72;64.86
12666;BME280;58531;59.050;17.416;2023-04-04T08:09:55;102210.06;;;2.01;64.74
12666;BME280;58531;59.050;17.416;2023-04-04T08:12:22;102208.56;;;2.15;64.69
12666;BME280;58531;59.050;17.416;2023-04-04T08:14:48;102217.66;;;2.18;62.10
12666;BME280;58531;59.050;17.416;2023-04-04T08:17:17;102217.06;;;2.09;60.11
12666;BME280;58531;59.050;17.416;2023-04-04T08:19:44;102215.94;;;1.94;59.40
12666;BME280;58531;59.050;17.416;2023-04-04T08:22:11;102212.72;;;2.01;60.91
12666;BME280;58531;59.050;17.416;2023-04-04T08:24:38;102217.41;;;2.23;59.28
12666;BME280;58531;59.050;17.416;2023-04-04T08:27:05;102224.38;;;2.30;59.11
12666;BME280;58531;59.050;17.416;2023-04-04T08:29:32;102215.09;;;2.36;58.42
12666;BME280;58531;59.050;17.416;2023-04-04T08:31:59;102221.66;;;2.58;58.22
12666;BME280;58531;59.050;17.416;2023-04-04T08:34:28;102225.16;;;2.96;57.88
12666;BME280;58531;59.050;17.416;2023-04-04T08:36:54;102225.06;;;2.58;56.97
12666;BME280;58531;59.050;17.416;2023-04-04T08:39:22;102220.59;;;2.93;56.55
12666;BME280;58531;59.050;17.416;2023-04-04T08:41:56;102218.09;;;3.00;54.77
12666;BME280;58531;59.050;17.416;2023-04-04T08:44:27;102218.25;;;3.07;53.46
12666;BME280;58531;59.050;17.416;2023-04-04T08:46:55;102216.25;;;3.20;53.06
12666;BME280;58531;59.050;17.416;2023-04-04T08:49:25;102209.94;;;3.62;52.56
12666;BME280;58531;59.050;17.416;2023-04-04T08:51:56;102218.25;;;3.83;49.73
12666;BME280;58531;59.050;17.416;2023-04-04T08:54:24;102219.13;;;3.49;48.36
12666;BME280;58531;59.050;17.416;2023-04-04T08:56:52;102216.34;;;3.61;48.57
12666;BME280;58531;59.050;17.416;2023-04-04T08:59:20;102215.78;;;3.71;48.25
12666;BME280;58531;59.050;17.416;2023-04-04T09:01:46;102217.88;;;3.81;45.96
12666;BME280;58531;59.050;17.416;2023-04-04T09:04:17;102217.28;;;3.91;46.55
12666;BME280;58531;59.050;17.416;2023-04-04T09:06:45;102209.06;;;3.96;45.44
12666;BME280;58531;59.050;17.416;2023-04-04T09:09:15;102210.13;;;4.14;45.44
12666;BME280;58531;59.050;17.416;2023-04-04T09:11:43;102201.25;;;4.25;43.66
12666;BME280;58531;59.050;17.416;2023-04-04T09:14:11;102206.91;;;4.24;43.55
12666;BME280;58531;59.050;17.416;2023-04-04T09:16:38;102209.47;;;4.20;41.87
12666;BME280;58531;59.050;17.416;2023-04-04T09:19:05;102210.31;;;4.24;41.70
12666;BME280;58531;59.050;17.416;2023-04-04T09:21:32;102218.41;;;4.35;42.50
12666;BME280;58531;59.050;17.416;2023-04-04T09:24:00;102211.59;;;4.56;41.90
12666;BME280;58531;59.050;17.416;2023-04-04T09:26:29;102219.66;;;4.41;41.34
12666;BME280;58531;59.050;17.416;2023-04-04T09:29:11;102221.84;;;4.35;42.14
12666;BME280;58531;59.050;17.416;2023-04-04T09:31:40;102221.59;;;4.21;40.67
12666;BME280;58531;59.050;17.416;2023-04-04T09:34:11;102220.88;;;4.47;41.76
12666;BME280;58531;59.050;17.416;2023-04-04T09:36:38;102218.47;;;4.61;42.42
12666;BME280;58531;59.050;17.416;2023-04-04T09:39:05;102212.72;;;4.81;42.32
12666;BME280;58531;59.050;17.416;2023-04-04T09:41:36;102217.13;;;5.25;41.87
12666;BME280;58531;59.050;17.416;2023-04-04T09:44:04;102220.00;;;5.17;40.56
12666;BME280;58531;59.050;17.416;2023-04-04T09:46:31;102209.09;;;4.92;41.31
12666;BME280;58531;59.050;17.416;2023-04-04T09:49:00;102203.59;;;5.04;42.24
12666;BME280;58531;59.050;17.416;2023-04-04T09:51:33;102206.94;;;5.01;42.46
12666;BME280;58531;59.050;17.416;2023-04-04T09:54:01;102206.28;;;5.08;41.64
12666;BME280;58531;59.050;17.416;2023-04-04T09:56:28;102208.88;;;5.34;41.54
12666;BME280;58531;59.050;17.416;2023-04-04T09:58:56;102204.50;;;5.48;41.36
12666;BME280;58531;59.050;17.416;2023-04-04T10:01:25;102203.38;;;5.49;41.29
12666;BME280;58531;59.050;17.416;2023-04-04T10:03:52;102207.81;;;5.71;41.29
12666;BME280;58531;59.050;17.416;2023-04-04T10:06:20;102203.97;;;6.01;42.01
12666;BME280;58531;59.050;17.416;2023-04-04T10:08:47;102196.69;;;5.95;42.37
12666;BME280;58531;59.050;17.416;2023-04-04T10:11:27;102201.16;;;5.84;41.58
12666;BME280;58531;59.050;17.416;2023-04-04T10:13:57;102206.44;;;6.24;40.64
12666;BME280;58531;59.050;17.416;2023-04-04T10:16:25;102201.78;;;6.10;41.03
12666;BME280;58531;59.050;17.416;2023-04-04T10:18:52;102192.41;;;6.23;40.74
12666;BME280;58531;59.050;17.416;2023-04-04T10:21:19;102183.13;;;6.00;41.86
12666;BME280;58531;59.050;17.416;2023-04-04T10:23:47;102188.75;;;6.35;41.69
12666;BME280;58531;59.050;17.416;2023-04-04T10:26:15;102190.22;;;6.32;40.89
12666;BME280;58531;59.050;17.416;2023-04-04T10:28:42;102183.56;;;5.73;41.74
12666;BME280;58531;59.050;17.416;2023-04-04T10:31:15;102192.16;;;5.59;42.27
12666;BME280;58531;59.050;17.416;2023-04-04T10:33:47;102184.38;;;5.77;40.84
12666;BME280;58531;59.050;17.416;2023-04-04T10:36:20;102186.34;;;5.80;42.04
12666;BME280;58531;59.050;17.416;2023-04-04T10:38:56;102185.31;;;5.91;40.10
12666;BME280;58531;59.050;17.416;2023-04-04T10:41:26;102183.31;;;6.21;40.71
12666;BME280;58531;59.050;17.416;2023-04-04T10:43:59;102185.19;;;6.20;40.73
12666;BME280;58531;59.050;17.416;2023-04-04T10:46:28;102180.00;;;6.31;39.48
12666;BME280;58531;59.050;17.416;2023-04-04T10:48:58;102175.88;;;5.97;39.32
12666;BME280;58531;59.050;17.416;2023-04-04T10:51:26;102176.28;;;5.99;39.67
12666;BME280;58531;59.050;17.416;2023-04-04T10:53:53;102175.97;;;6.04;38.91
12666;BME280;58531;59.050;17.416;2023-04-04T10:56:21;102164.78;;;5.81;38.93
12666;BME280;58531;59.050;17.416;2023-04-04T10:58:48;102162.69;;;5.31;38.97
12666;BME280;58531;59.050;17.416;2023-04-04T11:01:15;102157.72;;;5.26;39.78
12666;BME280;58531;59.050;17.416;2023-04-04T11:04:15;102148.84;;;5.45;39.52
12666;BME280;58531;59.050;17.416;2023-04-04T11:07:06;102148.38;;;5.39;39.98
12666;BME280;58531;59.050;17.416;2023-04-04T11:09:50;102147.97;;;5.01;40.30
12666;BME280;58531;59.050;17.416;2023-04-04T11:12:21;102141.06;;;4.96;40.23
12666;BME280;58531;59.050;17.416;2023-04-04T11:15:07;102144.69;;;4.81;39.98
12666;BME280;58531;59.050;17.416;2023-04-04T11:17:53;102147.72;;;4.83;39.56
12666;BME280;58531;59.050;17.416;2023-04-04T11:20:23;102145.19;;;4.64;40.54
12666;BME280;58531;59.050;17.416;2023-04-04T11:22:50;102142.16;;;4.92;41.00
12666;BME280;58531;59.050;17.416;2023-04-04T11:25:42;102137.78;;;5.03;39.80
12666;BME280;58531;59.050;17.416;2023-04-04T11:28:25;102140.94;;;5.15;40.45
12666;BME280;58531;59.050;17.416;2023-04-04T11:31:26;102151.13;;;5.13;40.20
12666;BME280;58531;59.050;17.416;2023-04-04T11:33:59;102144.28;;;5.09;40.46
12666;BME280;58531;59.050;17.416;2023-04-04T11:36:53;102146.13;;;5.41;40.66
12666;BME280;58531;59.050;17.416;2023-04-04T11:39:25;102139.06;;;5.52;38.94
12666;BME280;58531;59.050;17.416;2023-04-04T11:41:54;102136.81;;;5.54;39.31
12666;BME280;58531;59.050;17.416;2023-04-04T11:44:22;102136.63;;;5.33;39.90
12666;BME280;58531;59.050;17.416;2023-04-04T11:46:54;102140.78;;;5.34;40.81
12666;BME280;58531;59.050;17.416;2023-04-04T11:49:24;102134.88;;;5.48;41.33
12666;BME280;58531;59.050;17.416;2023-04-04T11:51:54;102132.72;;;5.60;39.85
12666;BME280;58531;59.050;17.416;2023-04-04T11:54:21;102139.63;;;5.68;39.71
12666;BME280;58531;59.050;17.416;2023-04-04T11:56:48;102138.09;;;5.67;40.06
12666;BME280;58531;59.050;17.416;2023-04-04T11:59:17;102133.06;;;5.95;39.80
12666;BME280;58531;59.050;17.416;2023-04-04T12:01:44;102137.19;;;6.36;40.33
12666;BME280;58531;59.050;17.416;2023-04-04T12:04:11;102129.66;;;6.45;38.57
12666;BME280;58531;59.050;17.416;2023-04-04T12:06:38;102126.00;;;6.67;38.55
12666;BME280;58531;59.050;17.416;2023-04-04T12:09:06;102126.75;;;6.64;38.27
12666;BME280;58531;59.050;17.416;2023-04-04T12:11:37;102120.72;;;6.74;38.31
12666;BME280;58531;59.050;17.416;2023-04-04T12:14:04;102109.84;;;6.96;36.81
12666;BME280;58531;59.050;17.416;2023-04-04T12:16:31;102109.09;;;7.02;37.82
12666;BME280;58531;59.050;17.416;2023-04-04T12:19:00;102120.38;;;6.82;36.75
12666;BME280;58531;59.050;17.416;2023-04-04T12:21:30;102108.03;;;6.43;38.62
12666;BME280;58531;59.050;17.416;2023-04-04T12:23:56;102111.56;;;6.61;38.90
12666;BME280;58531;59.050;17.416;2023-04-04T12:26:26;102106.28;;;6.68;39.37
12666;BME280;58531;59.050;17.416;2023-04-04T12:28:54;102098.69;;;6.63;37.47
12666;BME280;58531;59.050;17.416;2023-04-04T12:31:22;102098.94;;;6.40;38.43
12666;BME280;58531;59.050;17.416;2023-04-04T12:33:50;102102.31;;;6.34;39.90
12666;BME280;58531;59.050;17.416;2023-04-04T12:36:17;102099.03;;;6.58;38.04
12666;BME280;58531;59.050;17.416;2023-04-04T12:38:57;102098.72;;;6.70;39.39
12666;BME280;58531;59.050;17.416;2023-04-04T12:41:27;102093.84;;;6.79;37.00
12666;BME280;58531;59.050;17.416;2023-04-04T12:44:00;102093.56;;;7.11;38.18
12666;BME280;58531;59.050;17.416;2023-04-04T12:46:37;102096.72;;;7.52;37.26